CheckWX is a tool to help pilots better visualize weather data.  It is not intended as a substitute for an official pre-flight weather briefing.

13:36:12 UTC

KRYY TAF
Cobb County International-McCollum Field Airport
Atlanta, Georgia, USA
KRYY 181139Z 1812/1912 00000KT P6SM FEW250 FM181500 28003KT P6SM FEW035 FM181800 24003KT P6SM SCT060 FM190200 17004KT P6SM FEW250 FM190800 00000KT P6SM FEW250

Aug-18@
12:00 UTC

Aug-18 @ 12:00 UTC

Aug-18@
15:00 UTC

Aug-18 @ 15:00 UTC

KRYY 181139Z 1812/1912 00000KT P6SM FEW250
Cloud Levels
  • Few at 25,000' AGL

Aug-18@
15:00 UTC

Aug-18 @ 15:00 UTC

Aug-18@
18:00 UTC

Aug-18 @ 18:00 UTC

FM181500 28003KT P6SM FEW035

From

From Standard forecast or significant change

Wind
  • 280° at 3 KTS
Cloud Levels
  • Few at 3,500' AGL

Aug-18@
18:00 UTC

Aug-18 @ 18:00 UTC

Aug-19@
02:00 UTC

Aug-19 @ 02:00 UTC

FM181800 24003KT P6SM SCT060

From

From Standard forecast or significant change

Wind
  • 240° at 3 KTS
Cloud Levels
  • Scattered at 6,000' AGL

Aug-19@
02:00 UTC

Aug-19 @ 02:00 UTC

Aug-19@
08:00 UTC

Aug-19 @ 08:00 UTC

FM190200 17004KT P6SM FEW250

From

From Standard forecast or significant change

Wind
  • 170° at 4 KTS
Cloud Levels
  • Few at 25,000' AGL

Aug-19@
08:00 UTC

Aug-19 @ 08:00 UTC

Aug-19@
12:00 UTC

Aug-19 @ 12:00 UTC

FM190800 00000KT P6SM FEW250

From

From Standard forecast or significant change

Cloud Levels
  • Few at 25,000' AGL